sensor_id;sensor_type;location;lat;lon;timestamp;temperature;humidity
16140;DHT22;8175;49.326;12.690;2023-08-06T05:34:21;12.90;99.90
16140;DHT22;8175;49.326;12.690;2023-08-06T05:36:46;12.90;99.90
16140;DHT22;8175;49.326;12.690;2023-08-06T05:39:12;12.90;99.90
16140;DHT22;8175;49.326;12.690;2023-08-06T05:41:38;13.00;99.90
16140;DHT22;8175;49.326;12.690;2023-08-06T05:44:03;13.00;99.90
16140;DHT22;8175;49.326;12.690;2023-08-06T05:46:29;13.10;99.90
16140;DHT22;8175;49.326;12.690;2023-08-06T05:48:55;13.10;99.90
16140;DHT22;8175;49.326;12.690;2023-08-06T05:51:20;13.10;99.90
16140;DHT22;8175;49.326;12.690;2023-08-06T05:53:46;13.10;99.90
16140;DHT22;8175;49.326;12.690;2023-08-06T05:56:12;13.10;99.90
16140;DHT22;8175;49.326;12.690;2023-08-06T05:58:38;13.10;99.90
16140;DHT22;8175;49.326;12.690;2023-08-06T06:01:03;13.10;99.90
16140;DHT22;8175;49.326;12.690;2023-08-06T06:03:29;13.20;99.90
16140;DHT22;8175;49.326;12.690;2023-08-06T06:05:55;13.20;99.90
16140;DHT22;8175;49.326;12.690;2023-08-06T06:08:20;13.30;99.90
16140;DHT22;8175;49.326;12.690;2023-08-06T06:10:46;13.40;99.90
16140;DHT22;8175;49.326;12.690;2023-08-06T06:13:11;13.50;99.90
16140;DHT22;8175;49.326;12.690;2023-08-06T06:15:37;13.80;99.90
16140;DHT22;8175;49.326;12.690;2023-08-06T06:18:03;13.90;99.90
16140;DHT22;8175;49.326;12.690;2023-08-06T06:20:31;14.00;99.90
16140;DHT22;8175;49.326;12.690;2023-08-06T06:22:57;14.10;99.90
16140;DHT22;8175;49.326;12.690;2023-08-06T06:25:22;14.20;99.90
16140;DHT22;8175;49.326;12.690;2023-08-06T06:27:48;14.40;99.90
16140;DHT22;8175;49.326;12.690;2023-08-06T06:30:13;14.40;99.90
16140;DHT22;8175;49.326;12.690;2023-08-06T06:32:39;14.40;99.90
16140;DHT22;8175;49.326;12.690;2023-08-06T06:35:06;14.40;99.90
16140;DHT22;8175;49.326;12.690;2023-08-06T06:37:32;14.40;99.90
16140;DHT22;8175;49.326;12.690;2023-08-06T06:39:58;14.40;99.90
16140;DHT22;8175;49.326;12.690;2023-08-06T06:42:23;14.40;99.90
16140;DHT22;8175;49.326;12.690;2023-08-06T06:44:49;14.40;99.90
16140;DHT22;8175;49.326;12.690;2023-08-06T06:47:15;14.50;99.90
16140;DHT22;8175;49.326;12.690;2023-08-06T06:49:40;14.50;99.90
16140;DHT22;8175;49.326;12.690;2023-08-06T06:52:06;14.50;99.90
16140;DHT22;8175;49.326;12.690;2023-08-06T06:54:32;14.50;99.90
16140;DHT22;8175;49.326;12.690;2023-08-06T06:56:57;14.50;99.90
16140;DHT22;8175;49.326;12.690;2023-08-06T06:59:23;14.70;99.90
16140;DHT22;8175;49.326;12.690;2023-08-06T07:01:49;14.80;99.90
16140;DHT22;8175;49.326;12.690;2023-08-06T07:04:14;14.80;99.90
16140;DHT22;8175;49.326;12.690;2023-08-06T07:06:40;14.70;99.90
16140;DHT22;8175;49.326;12.690;2023-08-06T07:09:05;14.70;99.90
16140;DHT22;8175;49.326;12.690;2023-08-06T07:11:31;14.80;99.90
16140;DHT22;8175;49.326;12.690;2023-08-06T07:13:58;14.80;99.90
16140;DHT22;8175;49.326;12.690;2023-08-06T07:16:25;15.00;99.90
16140;DHT22;8175;49.326;12.690;2023-08-06T07:18:54;15.20;99.90
16140;DHT22;8175;49.326;12.690;2023-08-06T07:21:20;15.40;99.90
16140;DHT22;8175;49.326;12.690;2023-08-06T07:23:45;15.50;99.90
16140;DHT22;8175;49.326;12.690;2023-08-06T07:26:11;15.60;99.90
16140;DHT22;8175;49.326;12.690;2023-08-06T07:28:37;15.50;99.90
16140;DHT22;8175;49.326;12.690;2023-08-06T07:31:03;15.50;99.90
16140;DHT22;8175;49.326;12.690;2023-08-06T07:33:29;15.50;99.90
16140;DHT22;8175;49.326;12.690;2023-08-06T07:35:55;15.60;99.90
16140;DHT22;8175;49.326;12.690;2023-08-06T07:38:20;15.80;99.90
16140;DHT22;8175;49.326;12.690;2023-08-06T07:40:47;16.00;99.90
16140;DHT22;8175;49.326;12.690;2023-08-06T07:43:12;16.00;99.90
16140;DHT22;8175;49.326;12.690;2023-08-06T07:45:38;15.60;99.90
16140;DHT22;8175;49.326;12.690;2023-08-06T07:48:04;15.40;99.90
16140;DHT22;8175;49.326;12.690;2023-08-06T07:50:30;15.20;99.90
16140;DHT22;8175;49.326;12.690;2023-08-06T07:52:56;15.30;99.90
16140;DHT22;8175;49.326;12.690;2023-08-06T07:55:21;15.30;99.90
16140;DHT22;8175;49.326;12.690;2023-08-06T07:57:47;15.40;99.90
16140;DHT22;8175;49.326;12.690;2023-08-06T08:00:13;15.60;99.90
16140;DHT22;8175;49.326;12.690;2023-08-06T08:02:38;15.90;99.90
16140;DHT22;8175;49.326;12.690;2023-08-06T08:05:04;16.50;99.90
16140;DHT22;8175;49.326;12.690;2023-08-06T08:07:32;16.90;99.90
16140;DHT22;8175;49.326;12.690;2023-08-06T08:09:58;17.00;99.90
16140;DHT22;8175;49.326;12.690;2023-08-06T08:12:24;16.90;99.90
16140;DHT22;8175;49.326;12.690;2023-08-06T08:14:49;16.40;99.90
16140;DHT22;8175;49.326;12.690;2023-08-06T08:17:15;15.90;99.90
16140;DHT22;8175;49.326;12.690;2023-08-06T08:19:41;15.50;99.90
16140;DHT22;8175;49.326;12.690;2023-08-06T08:22:07;15.20;99.90
16140;DHT22;8175;49.326;12.690;2023-08-06T08:24:32;15.10;99.90
16140;DHT22;8175;49.326;12.690;2023-08-06T08:26:58;15.30;99.90
16140;DHT22;8175;49.326;12.690;2023-08-06T08:29:24;15.50;99.90
16140;DHT22;8175;49.326;12.690;2023-08-06T08:31:49;15.80;99.90
16140;DHT22;8175;49.326;12.690;2023-08-06T08:34:18;16.00;99.90
16140;DHT22;8175;49.326;12.690;2023-08-06T08:36:44;16.70;99.90
16140;DHT22;8175;49.326;12.690;2023-08-06T08:39:13;17.40;99.90
16140;DHT22;8175;49.326;12.690;2023-08-06T08:41:39;17.80;99.90
16140;DHT22;8175;49.326;12.690;2023-08-06T08:44:08;17.70;99.90
16140;DHT22;8175;49.326;12.690;2023-08-06T08:46:36;17.60;99.90
16140;DHT22;8175;49.326;12.690;2023-08-06T08:49:04;17.20;99.90
16140;DHT22;8175;49.326;12.690;2023-08-06T08:51:30;17.20;99.90
16140;DHT22;8175;49.326;12.690;2023-08-06T08:53:56;17.50;99.90
16140;DHT22;8175;49.326;12.690;2023-08-06T08:56:23;18.30;99.90
16140;DHT22;8175;49.326;12.690;2023-08-06T08:58:49;19.20;99.90
16140;DHT22;8175;49.326;12.690;2023-08-06T09:01:15;20.30;99.90
16140;DHT22;8175;49.326;12.690;2023-08-06T09:03:42;20.50;99.90
16140;DHT22;8175;49.326;12.690;2023-08-06T09:06:10;20.00;99.90
16140;DHT22;8175;49.326;12.690;2023-08-06T09:08:41;19.10;99.90
16140;DHT22;8175;49.326;12.690;2023-08-06T09:11:09;18.30;99.90
16140;DHT22;8175;49.326;12.690;2023-08-06T09:13:37;17.60;99.90
16140;DHT22;8175;49.326;12.690;2023-08-06T09:16:03;16.80;99.90
16140;DHT22;8175;49.326;12.690;2023-08-06T09:18:32;16.50;99.90
16140;DHT22;8175;49.326;12.690;2023-08-06T09:20:57;16.90;99.90
16140;DHT22;8175;49.326;12.690;2023-08-06T09:23:30;18.10;99.90
16140;DHT22;8175;49.326;12.690;2023-08-06T09:25:57;19.40;99.90
16140;DHT22;8175;49.326;12.690;2023-08-06T09:28:23;21.00;99.90
16140;DHT22;8175;49.326;12.690;2023-08-06T09:30:50;22.60;99.90
16140;DHT22;8175;49.326;12.690;2023-08-06T09:33:19;22.60;99.90
16140;DHT22;8175;49.326;12.690;2023-08-06T09:35:46;21.50;99.90
16140;DHT22;8175;49.326;12.690;2023-08-06T09:38:12;20.40;99.90
16140;DHT22;8175;49.326;12.690;2023-08-06T09:40:40;19.20;99.90
16140;DHT22;8175;49.326;12.690;2023-08-06T09:43:06;18.40;99.90
16140;DHT22;8175;49.326;12.690;2023-08-06T09:45:36;18.00;99.90
16140;DHT22;8175;49.326;12.690;2023-08-06T09:48:06;17.80;99.90
16140;DHT22;8175;49.326;12.690;2023-08-06T09:50:37;17.20;99.90
16140;DHT22;8175;49.326;12.690;2023-08-06T09:53:04;17.00;99.90
16140;DHT22;8175;49.326;12.690;2023-08-06T09:55:31;16.90;99.90
16140;DHT22;8175;49.326;12.690;2023-08-06T09:57:58;17.00;99.90
16140;DHT22;8175;49.326;12.690;2023-08-06T10:00:24;18.40;99.90
16140;DHT22;8175;49.326;12.690;2023-08-06T10:02:50;20.40;99.90
16140;DHT22;8175;49.326;12.690;2023-08-06T10:05:20;22.20;99.90
16140;DHT22;8175;49.326;12.690;2023-08-06T10:07:47;22.90;99.90
16140;DHT22;8175;49.326;12.690;2023-08-06T10:10:14;22.30;99.90
16140;DHT22;8175;49.326;12.690;2023-08-06T10:12:44;21.70;99.90
16140;DHT22;8175;49.326;12.690;2023-08-06T10:15:13;22.20;99.90
16140;DHT22;8175;49.326;12.690;2023-08-06T10:17:40;21.90;99.90
16140;DHT22;8175;49.326;12.690;2023-08-06T10:20:08;21.20;99.90
16140;DHT22;8175;49.326;12.690;2023-08-06T10:22:34;20.70;99.90
16140;DHT22;8175;49.326;12.690;2023-08-06T10:25:03;19.80;99.90
16140;DHT22;8175;49.326;12.690;2023-08-06T10:27:35;18.50;99.90
16140;DHT22;8175;49.326;12.690;2023-08-06T10:30:28;17.70;99.90
16140;DHT22;8175;49.326;12.690;2023-08-06T10:32:58;17.40;99.90
16140;DHT22;8175;49.326;12.690;2023-08-06T10:41:01;18.90;99.90
16140;DHT22;8175;49.326;12.690;2023-08-06T10:43:32;16.90;99.90
16140;DHT22;8175;49.326;12.690;2023-08-06T10:45:59;15.30;99.90
16140;DHT22;8175;49.326;12.690;2023-08-06T10:48:40;14.30;99.90
16140;DHT22;8175;49.326;12.690;2023-08-06T10:51:13;13.90;99.90
16140;DHT22;8175;49.326;12.690;2023-08-06T10:53:48;13.40;99.90
16140;DHT22;8175;49.326;12.690;2023-08-06T10:56:15;13.30;99.90
16140;DHT22;8175;49.326;12.690;2023-08-06T10:58:41;13.30;99.90
16140;DHT22;8175;49.326;12.690;2023-08-06T11:01:07;13.40;99.90
16140;DHT22;8175;49.326;12.690;2023-08-06T11:03:33;13.60;99.90
16140;DHT22;8175;49.326;12.690;2023-08-06T11:06:00;13.70;99.90
16140;DHT22;8175;49.326;12.690;2023-08-06T11:08:27;13.90;99.90
16140;DHT22;8175;49.326;12.690;2023-08-06T11:10:53;14.20;99.90
16140;DHT22;8175;49.326;12.690;2023-08-06T11:13:19;14.50;99.90
16140;DHT22;8175;49.326;12.690;2023-08-06T11:15:45;14.80;99.90
16140;DHT22;8175;49.326;12.690;2023-08-06T11:18:11;15.10;99.90
16140;DHT22;8175;49.326;12.690;2023-08-06T11:20:38;15.80;99.90
16140;DHT22;8175;49.326;12.690;2023-08-06T11:23:05;16.20;99.90
16140;DHT22;8175;49.326;12.690;2023-08-06T11:25:30;16.90;99.90
16140;DHT22;8175;49.326;12.690;2023-08-06T11:27:56;17.20;99.90
16140;DHT22;8175;49.326;12.690;2023-08-06T11:30:22;17.20;99.90
16140;DHT22;8175;49.326;12.690;2023-08-06T11:32:48;17.40;99.90
16140;DHT22;8175;49.326;12.690;2023-08-06T11:35:15;17.90;99.90
16140;DHT22;8175;49.326;12.690;2023-08-06T11:37:47;17.90;99.90
16140;DHT22;8175;49.326;12.690;2023-08-06T11:40:15;18.00;99.90
16140;DHT22;8175;49.326;12.690;2023-08-06T11:42:40;18.60;99.90
16140;DHT22;8175;49.326;12.690;2023-08-06T11:45:08;18.70;99.90
16140;DHT22;8175;49.326;12.690;2023-08-06T11:47:38;18.60;99.90
16140;DHT22;8175;49.326;12.690;2023-08-06T11:50:06;19.20;99.90
16140;DHT22;8175;49.326;12.690;2023-08-06T11:52:31;20.70;99.90
16140;DHT22;8175;49.326;12.690;2023-08-06T11:55:07;21.30;99.90
16140;DHT22;8175;49.326;12.690;2023-08-06T11:57:36;22.30;99.90
16140;DHT22;8175;49.326;12.690;2023-08-06T12:00:06;23.00;99.90
16140;DHT22;8175;49.326;12.690;2023-08-06T12:02:32;21.90;99.90
16140;DHT22;8175;49.326;12.690;2023-08-06T12:05:11;20.00;99.90
16140;DHT22;8175;49.326;12.690;2023-08-06T12:07:40;18.20;99.90
16140;DHT22;8175;49.326;12.690;2023-08-06T12:10:07;17.50;99.90
16140;DHT22;8175;49.326;12.690;2023-08-06T12:12:33;17.60;99.90
16140;DHT22;8175;49.326;12.690;2023-08-06T12:14:59;17.30;99.90
16140;DHT22;8175;49.326;12.690;2023-08-06T12:17:26;16.90;99.90
16140;DHT22;8175;49.326;12.690;2023-08-06T12:19:51;16.60;99.90
16140;DHT22;8175;49.326;12.690;2023-08-06T12:22:17;16.80;99.90
16140;DHT22;8175;49.326;12.690;2023-08-06T12:24:44;16.70;99.90
16140;DHT22;8175;49.326;12.690;2023-08-06T12:27:11;16.70;99.90
16140;DHT22;8175;49.326;12.690;2023-08-06T12:29:40;16.70;99.90
16140;DHT22;8175;49.326;12.690;2023-08-06T12:32:07;16.50;99.90
16140;DHT22;8175;49.326;12.690;2023-08-06T12:34:33;16.80;99.90
16140;DHT22;8175;49.326;12.690;2023-08-06T12:36:58;17.10;99.90
16140;DHT22;8175;49.326;12.690;2023-08-06T12:39:24;17.40;99.90
16140;DHT22;8175;49.326;12.690;2023-08-06T12:41:50;17.60;99.90
16140;DHT22;8175;49.326;12.690;2023-08-06T12:44:15;17.70;99.90
16140;DHT22;8175;49.326;12.690;2023-08-06T12:46:41;18.30;99.90
16140;DHT22;8175;49.326;12.690;2023-08-06T12:49:06;19.30;99.90
16140;DHT22;8175;49.326;12.690;2023-08-06T12:51:32;19.10;99.90
16140;DHT22;8175;49.326;12.690;2023-08-06T12:53:59;19.00;99.90
16140;DHT22;8175;49.326;12.690;2023-08-06T12:56:25;18.70;99.90
16140;DHT22;8175;49.326;12.690;2023-08-06T12:58:51;19.50;99.90
16140;DHT22;8175;49.326;12.690;2023-08-06T13:01:16;19.80;99.90
16140;DHT22;8175;49.326;12.690;2023-08-06T13:03:42;19.50;99.90
16140;DHT22;8175;49.326;12.690;2023-08-06T13:06:08;19.20;99.90
16140;DHT22;8175;49.326;12.690;2023-08-06T13:08:35;18.50;99.90
16140;DHT22;8175;49.326;12.690;2023-08-06T13:11:01;17.90;99.90
16140;DHT22;8175;49.326;12.690;2023-08-06T13:13:27;17.50;99.90
16140;DHT22;8175;49.326;12.690;2023-08-06T13:15:52;17.40;99.90
16140;DHT22;8175;49.326;12.690;2023-08-06T13:18:18;17.60;99.90
16140;DHT22;8175;49.326;12.690;2023-08-06T13:20:44;17.80;99.90
16140;DHT22;8175;49.326;12.690;2023-08-06T13:23:09;17.80;99.90
16140;DHT22;8175;49.326;12.690;2023-08-06T13:25:35;18.80;99.90
16140;DHT22;8175;49.326;12.690;2023-08-06T13:28:05;20.00;99.90
16140;DHT22;8175;49.326;12.690;2023-08-06T13:30:31;20.60;99.90
16140;DHT22;8175;49.326;12.690;2023-08-06T13:32:57;20.90;99.90
16140;DHT22;8175;49.326;12.690;2023-08-06T13:35:23;19.90;99.90
16140;DHT22;8175;49.326;12.690;2023-08-06T13:37:49;19.60;99.90
16140;DHT22;8175;49.326;12.690;2023-08-06T13:40:15;18.70;99.90
16140;DHT22;8175;49.326;12.690;2023-08-06T13:42:41;18.10;99.90
16140;DHT22;8175;49.326;12.690;2023-08-06T13:45:07;17.20;99.90
16140;DHT22;8175;49.326;12.690;2023-08-06T13:47:33;16.50;99.90
16140;DHT22;8175;49.326;12.690;2023-08-06T13:49:58;16.20;99.90
16140;DHT22;8175;49.326;12.690;2023-08-06T13:52:25;16.20;99.90
16140;DHT22;8175;49.326;12.690;2023-08-06T13:54:52;16.20;99.90
16140;DHT22;8175;49.326;12.690;2023-08-06T13:57:17;16.00;99.90
16140;DHT22;8175;49.326;12.690;2023-08-06T13:59:43;15.80;99.90
16140;DHT22;8175;49.326;12.690;2023-08-06T14:02:12;15.60;99.90
16140;DHT22;8175;49.326;12.690;2023-08-06T14:04:37;15.50;99.90
16140;DHT22;8175;49.326;12.690;2023-08-06T14:07:04;15.40;99.90
16140;DHT22;8175;49.326;12.690;2023-08-06T14:09:29;15.60;99.90
16140;DHT22;8175;49.326;12.690;2023-08-06T14:11:55;16.10;99.90
16140;DHT22;8175;49.326;12.690;2023-08-06T14:14:21;17.30;99.90
16140;DHT22;8175;49.326;12.690;2023-08-06T14:16:53;18.80;99.90
16140;DHT22;8175;49.326;12.690;2023-08-06T14:19:19;19.70;99.90
16140;DHT22;8175;49.326;12.690;2023-08-06T14:21:45;20.20;99.90
16140;DHT22;8175;49.326;12.690;2023-08-06T14:24:11;20.50;99.90
16140;DHT22;8175;49.326;12.690;2023-08-06T14:26:37;20.70;99.90
16140;DHT22;8175;49.326;12.690;2023-08-06T14:29:02;20.50;99.90
16140;DHT22;8175;49.326;12.690;2023-08-06T14:31:28;20.20;99.90
16140;DHT22;8175;49.326;12.690;2023-08-06T14:33:54;19.70;99.90
16140;DHT22;8175;49.326;12.690;2023-08-06T14:36:20;19.00;99.90
16140;DHT22;8175;49.326;12.690;2023-08-06T14:38:45;18.90;99.90
16140;DHT22;8175;49.326;12.690;2023-08-06T14:41:11;18.70;99.90
16140;DHT22;8175;49.326;12.690;2023-08-06T14:43:37;18.10;99.90
16140;DHT22;8175;49.326;12.690;2023-08-06T14:46:02;17.60;99.90
16140;DHT22;8175;49.326;12.690;2023-08-06T14:48:29;17.10;99.90
16140;DHT22;8175;49.326;12.690;2023-08-06T14:50:55;16.80;99.90
16140;DHT22;8175;49.326;12.690;2023-08-06T14:53:21;16.20;99.90
16140;DHT22;8175;49.326;12.690;2023-08-06T14:55:46;15.70;99.90
16140;DHT22;8175;49.326;12.690;2023-08-06T14:58:12;15.40;99.90
16140;DHT22;8175;49.326;12.690;2023-08-06T15:00:38;15.30;99.90
16140;DHT22;8175;49.326;12.690;2023-08-06T15:03:03;15.30;99.90
16140;DHT22;8175;49.326;12.690;2023-08-06T15:05:29;15.60;99.90
16140;DHT22;8175;49.326;12.690;2023-08-06T15:07:55;15.80;99.90
16140;DHT22;8175;49.326;12.690;2023-08-06T15:10:21;16.00;99.90
16140;DHT22;8175;49.326;12.690;2023-08-06T15:12:48;16.40;99.90
16140;DHT22;8175;49.326;12.690;2023-08-06T15:15:14;16.50;99.90
16140;DHT22;8175;49.326;12.690;2023-08-06T15:17:40;16.50;99.90
16140;DHT22;8175;49.326;12.690;2023-08-06T15:20:06;16.60;99.90
16140;DHT22;8175;49.326;12.690;2023-08-06T15:22:32;16.30;99.90
16140;DHT22;8175;49.326;12.690;2023-08-06T15:24:59;16.20;99.90
16140;DHT22;8175;49.326;12.690;2023-08-06T15:27:25;16.00;99.90
16140;DHT22;8175;49.326;12.690;2023-08-06T15:29:51;15.90;99.90
16140;DHT22;8175;49.326;12.690;2023-08-06T15:32:17;15.80;99.90
16140;DHT22;8175;49.326;12.690;2023-08-06T15:34:43;15.70;99.90
16140;DHT22;8175;49.326;12.690;2023-08-06T15:37:08;15.50;99.90
16140;DHT22;8175;49.326;12.690;2023-08-06T15:39:34;15.40;99.90
16140;DHT22;8175;49.326;12.690;2023-08-06T15:42:00;15.40;99.90
16140;DHT22;8175;49.326;12.690;2023-08-06T15:44:25;15.40;99.90
16140;DHT22;8175;49.326;12.690;2023-08-06T15:46:51;15.20;99.90
16140;DHT22;8175;49.326;12.690;2023-08-06T15:49:17;15.30;99.90
16140;DHT22;8175;49.326;12.690;2023-08-06T15:51:42;15.40;99.90
16140;DHT22;8175;49.326;12.690;2023-08-06T15:54:09;15.20;99.90
16140;DHT22;8175;49.326;12.690;2023-08-06T15:56:34;15.20;99.90
16140;DHT22;8175;49.326;12.690;2023-08-06T15:59:30;15.00;99.90
16140;DHT22;8175;49.326;12.690;2023-08-06T16:01:56;14.80;99.90
16140;DHT22;8175;49.326;12.690;2023-08-06T16:04:25;14.80;99.90
16140;DHT22;8175;49.326;12.690;2023-08-06T16:06:50;14.70;99.90
16140;DHT22;8175;49.326;12.690;2023-08-06T16:09:16;14.50;99.90
16140;DHT22;8175;49.326;12.690;2023-08-06T16:11:42;14.30;99.90
16140;DHT22;8175;49.326;12.690;2023-08-06T16:14:07;14.00;99.90
16140;DHT22;8175;49.326;12.690;2023-08-06T16:16:33;13.70;99.90
16140;DHT22;8175;49.326;12.690;2023-08-06T16:19:01;13.40;99.90
16140;DHT22;8175;49.326;12.690;2023-08-06T16:21:26;13.30;99.90
16140;DHT22;8175;49.326;12.690;2023-08-06T16:23:52;13.30;99.90
16140;DHT22;8175;49.326;12.690;2023-08-06T16:26:18;13.20;99.90
16140;DHT22;8175;49.326;12.690;2023-08-06T16:28:43;13.10;99.90
16140;DHT22;8175;49.326;12.690;2023-08-06T16:31:09;13.00;99.90
16140;DHT22;8175;49.326;12.690;2023-08-06T16:33:36;13.00;99.90
16140;DHT22;8175;49.326;12.690;2023-08-06T16:36:05;13.00;99.90
16140;DHT22;8175;49.326;12.690;2023-08-06T16:38:31;13.00;99.90
16140;DHT22;8175;49.326;12.690;2023-08-06T16:40:57;12.90;99.90
16140;DHT22;8175;49.326;12.690;2023-08-06T16:43:24;12.90;99.90
16140;DHT22;8175;49.326;12.690;2023-08-06T16:45:52;12.80;99.90
16140;DHT22;8175;49.326;12.690;2023-08-06T16:48:19;12.70;99.90
16140;DHT22;8175;49.326;12.690;2023-08-06T16:50:52;12.60;99.90
16140;DHT22;8175;49.326;12.690;2023-08-06T16:53:18;12.60;99.90
16140;DHT22;8175;49.326;12.690;2023-08-06T16:55:43;12.50;99.90
16140;DHT22;8175;49.326;12.690;2023-08-06T16:58:09;12.50;99.90
16140;DHT22;8175;49.326;12.690;2023-08-06T17:00:34;12.40;99.90
16140;DHT22;8175;49.326;12.690;2023-08-06T17:03:00;12.40;99.90
16140;DHT22;8175;49.326;12.690;2023-08-06T17:05:26;12.40;99.90
16140;DHT22;8175;49.326;12.690;2023-08-06T17:07:51;12.40;99.90
16140;DHT22;8175;49.326;12.690;2023-08-06T17:10:17;12.40;99.90
16140;DHT22;8175;49.326;12.690;2023-08-06T17:12:48;12.30;99.90
16140;DHT22;8175;49.326;12.690;2023-08-06T17:15:14;12.40;99.90
16140;DHT22;8175;49.326;12.690;2023-08-06T17:17:40;12.30;99.90
16140;DHT22;8175;49.326;12.690;2023-08-06T17:20:06;12.20;99.90
16140;DHT22;8175;49.326;12.690;2023-08-06T17:22:32;12.20;99.90
16140;DHT22;8175;49.326;12.690;2023-08-06T17:24:58;12.20;99.90
16140;DHT22;8175;49.326;12.690;2023-08-06T17:27:24;12.10;99.90
16140;DHT22;8175;49.326;12.690;2023-08-06T17:29:49;12.10;99.90
16140;DHT22;8175;49.326;12.690;2023-08-06T17:32:15;12.10;99.90
16140;DHT22;8175;49.326;12.690;2023-08-06T17:34:41;12.10;99.90
16140;DHT22;8175;49.326;12.690;2023-08-06T17:37:07;12.10;99.90
16140;DHT22;8175;49.326;12.690;2023-08-06T17:39:33;12.10;99.90
16140;DHT22;8175;49.326;12.690;2023-08-06T17:41:59;12.10;99.90
16140;DHT22;8175;49.326;12.690;2023-08-06T17:44:31;12.10;99.90
16140;DHT22;8175;49.326;12.690;2023-08-06T17:46:58;12.20;99.90
16140;DHT22;8175;49.326;12.690;2023-08-06T17:49:24;12.20;99.90
16140;DHT22;8175;49.326;12.690;2023-08-06T17:51:49;12.10;99.90
16140;DHT22;8175;49.326;12.690;2023-08-06T17:54:15;12.10;99.90
16140;DHT22;8175;49.326;12.690;2023-08-06T17:56:41;12.10;99.90
16140;DHT22;8175;49.326;12.690;2023-08-06T17:59:07;12.10;99.90
16140;DHT22;8175;49.326;12.690;2023-08-06T18:01:32;12.10;99.90
16140;DHT22;8175;49.326;12.690;2023-08-06T18:03:58;12.10;99.90
16140;DHT22;8175;49.326;12.690;2023-08-06T18:06:23;12.00;99.90
16140;DHT22;8175;49.326;12.690;2023-08-06T18:08:49;12.00;99.90
16140;DHT22;8175;49.326;12.690;2023-08-06T18:11:15;12.00;99.90
16140;DHT22;8175;49.326;12.690;2023-08-06T18:13:43;12.00;99.90
16140;DHT22;8175;49.326;12.690;2023-08-06T18:16:09;12.00;99.90
16140;DHT22;8175;49.326;12.690;2023-08-06T18:18:34;12.00;99.90
16140;DHT22;8175;49.326;12.690;2023-08-06T18:21:00;12.10;99.90
16140;DHT22;8175;49.326;12.690;2023-08-06T18:23:26;12.10;99.90
16140;DHT22;8175;49.326;12.690;2023-08-06T18:25:51;12.00;99.90
16140;DHT22;8175;49.326;12.690;2023-08-06T18:28:22;12.00;99.90
16140;DHT22;8175;49.326;12.690;2023-08-06T18:30:47;12.10;99.90
16140;DHT22;8175;49.326;12.690;2023-08-06T18:33:13;12.10;99.90
16140;DHT22;8175;49.326;12.690;2023-08-06T18:35:42;12.10;99.90
16140;DHT22;8175;49.326;12.690;2023-08-06T18:38:08;12.10;99.90
16140;DHT22;8175;49.326;12.690;2023-08-06T18:40:34;12.10;99.90
16140;DHT22;8175;49.326;12.690;2023-08-06T18:43:00;12.20;99.90
16140;DHT22;8175;49.326;12.690;2023-08-06T18:45:25;12.20;99.90
16140;DHT22;8175;49.326;12.690;2023-08-06T18:47:51;12.10;99.90
16140;DHT22;8175;49.326;12.690;2023-08-06T18:50:17;12.10;99.90
16140;DHT22;8175;49.326;12.690;2023-08-06T18:52:43;12.20;99.90
16140;DHT22;8175;49.326;12.690;2023-08-06T18:55:09;12.20;99.90
16140;DHT22;8175;49.326;12.690;2023-08-06T18:57:35;12.20;99.90
16140;DHT22;8175;49.326;12.690;2023-08-06T19:00:01;12.20;99.90
16140;DHT22;8175;49.326;12.690;2023-08-06T19:02:29;12.20;99.90
16140;DHT22;8175;49.326;12.690;2023-08-06T19:04:55;12.20;99.90
16140;DHT22;8175;49.326;12.690;2023-08-06T19:07:22;12.10;99.90
16140;DHT22;8175;49.326;12.690;2023-08-06T19:09:48;12.10;99.90
16140;DHT22;8175;49.326;12.690;2023-08-06T19:12:14;12.00;99.90
16140;DHT22;8175;49.326;12.690;2023-08-06T19:14:41;12.00;99.90
16140;DHT22;8175;49.326;12.690;2023-08-06T19:17:07;12.00;99.90
16140;DHT22;8175;49.326;12.690;2023-08-06T19:19:33;11.90;99.90
16140;DHT22;8175;49.326;12.690;2023-08-06T19:21:58;11.80;99.90
16140;DHT22;8175;49.326;12.690;2023-08-06T19:24:24;11.80;99.90
16140;DHT22;8175;49.326;12.690;2023-08-06T19:26:50;11.70;99.90
16140;DHT22;8175;49.326;12.690;2023-08-06T19:29:16;11.70;99.90
16140;DHT22;8175;49.326;12.690;2023-08-06T19:31:41;11.60;99.90
16140;DHT22;8175;49.326;12.690;2023-08-06T19:34:08;11.60;99.90
16140;DHT22;8175;49.326;12.690;2023-08-06T19:36:34;11.60;99.90
16140;DHT22;8175;49.326;12.690;2023-08-06T19:38:59;11.60;99.90
16140;DHT22;8175;49.326;12.690;2023-08-06T19:41:25;11.60;99.90
16140;DHT22;8175;49.326;12.690;2023-08-06T19:43:51;11.60;99.90
16140;DHT22;8175;49.326;12.690;2023-08-06T19:46:16;11.50;99.90
16140;DHT22;8175;49.326;12.690;2023-08-06T19:48:42;11.50;99.90
16140;DHT22;8175;49.326;12.690;2023-08-06T19:51:08;11.50;99.90
16140;DHT22;8175;49.326;12.690;2023-08-06T19:53:34;11.50;99.90
16140;DHT22;8175;49.326;12.690;2023-08-06T19:56:01;11.50;99.90
16140;DHT22;8175;49.326;12.690;2023-08-06T19:58:28;11.50;99.90
16140;DHT22;8175;49.326;12.690;2023-08-06T20:00:55;11.50;99.90
16140;DHT22;8175;49.326;12.690;2023-08-06T20:03:21;11.40;99.90
16140;DHT22;8175;49.326;12.690;2023-08-06T20:05:47;11.40;99.90
16140;DHT22;8175;49.326;12.690;2023-08-06T20:08:13;11.40;99.90
16140;DHT22;8175;49.326;12.690;2023-08-06T20:10:38;11.40;99.90
16140;DHT22;8175;49.326;12.690;2023-08-06T20:13:07;11.40;99.90
16140;DHT22;8175;49.326;12.690;2023-08-06T20:15:36;11.30;99.90
16140;DHT22;8175;49.326;12.690;2023-08-06T20:18:01;11.30;99.90
16140;DHT22;8175;49.326;12.690;2023-08-06T20:20:27;11.30;99.90
16140;DHT22;8175;49.326;12.690;2023-08-06T20:22:53;11.30;99.90
16140;DHT22;8175;49.326;12.690;2023-08-06T20:25:18;11.20;99.90
16140;DHT22;8175;49.326;12.690;2023-08-06T20:27:44;11.20;99.90
16140;DHT22;8175;49.326;12.690;2023-08-06T20:30:10;11.20;99.90
16140;DHT22;8175;49.326;12.690;2023-08-06T20:32:36;11.10;99.90
16140;DHT22;8175;49.326;12.690;2023-08-06T20:35:02;11.10;99.90
16140;DHT22;8175;49.326;12.690;2023-08-06T20:37:27;11.10;99.90
16140;DHT22;8175;49.326;12.690;2023-08-06T20:39:53;11.20;99.90
16140;DHT22;8175;49.326;12.690;2023-08-06T20:42:19;11.20;99.90
16140;DHT22;8175;49.326;12.690;2023-08-06T20:44:44;11.20;99.90
16140;DHT22;8175;49.326;12.690;2023-08-06T20:47:11;11.20;99.90
16140;DHT22;8175;49.326;12.690;2023-08-06T20:49:37;11.20;99.90
16140;DHT22;8175;49.326;12.690;2023-08-06T20:52:03;11.20;99.90
16140;DHT22;8175;49.326;12.690;2023-08-06T20:54:28;11.20;99.90
16140;DHT22;8175;49.326;12.690;2023-08-06T20:56:54;11.20;99.90
16140;DHT22;8175;49.326;12.690;2023-08-06T20:59:20;11.20;99.90
16140;DHT22;8175;49.326;12.690;2023-08-06T21:01:45;11.20;99.90
16140;DHT22;8175;49.326;12.690;2023-08-06T21:04:12;11.20;99.90